Terminal Aerodrome Forecast
Issued by NWS

Home | Current Version | Previous Version | Text Only | Print | Product List | Glossary On
Versions: 1 2 3 4 5 6 7 8 9 10 11 12 13 14 15 16 17 18 19 20 21 22 23 24 25 26 27 28 29 30 31
845
FTUS43 KDTX 242320
TAFDET
TAF
KDET 242320Z 2500/2524 30009KT P6SM OVC015
     FM250500 25005KT 3SM BR OVC008
     FM250800 VRB04KT 1SM BR OVC005
     FM251000 VRB03KT 1/2SM FG OVC003
     FM251400 13004KT 2SM BR BKN007 OVC014
     FM251600 13005KT 5SM -SHRA BR OVC012
     FM252100 15008KT 6SM -SHRA BR OVC009=

USA.gov is the U.S. government's official web portal to all federal, state and local government web resources and services.